Roaming Rock Shores, Ohio
Current Conditions -  °F | °C
As of 12:53 PM on Sunday 21 Dec 2014 (Local Time) from KHZY Reporting Station
Overcast Overcast  
Wind Chill: 26°   Ceiling: 2700
Heat Index: 32°   Visibility: 10mi
Dew Point: 23°   Wind: 7mph
Humidity: 69%   Direction: 140°SE
Pressure: 30.29"   Gusts: NA
Location:  41.6051°N, 80.867°W
Report Text: KHZY 211753Z AUTO 14006KT 10SM OVC027 00/M05 A3029 RMK AO2 SLP266 T00001050 10000 21017 58011
Loading
Personal Weather Stations






























Interactive Weather Map New forecast layout! Learn more

10-Day Weather Forecast

Advertisements
Track Severe Weather on mobile